sensor_id;sensor_type;location;lat;lon;timestamp;temperature;humidity
26099;DHT22;13860;52.370;6.764;2023-04-24T00:01:23;12.00;70.50
26099;DHT22;13860;52.370;6.764;2023-04-24T00:04:29;12.00;70.70
26099;DHT22;13860;52.370;6.764;2023-04-24T00:07:34;11.90;70.40
26099;DHT22;13860;52.370;6.764;2023-04-24T00:10:42;11.90;70.20
26099;DHT22;13860;52.370;6.764;2023-04-24T00:13:46;11.90;71.00
26099;DHT22;13860;52.370;6.764;2023-04-24T00:16:52;11.90;71.00
26099;DHT22;13860;52.370;6.764;2023-04-24T00:19:55;11.90;70.70
26099;DHT22;13860;52.370;6.764;2023-04-24T00:23:02;11.90;71.00
26099;DHT22;13860;52.370;6.764;2023-04-24T00:26:07;11.90;70.70
26099;DHT22;13860;52.370;6.764;2023-04-24T00:29:13;11.90;70.90
26099;DHT22;13860;52.370;6.764;2023-04-24T00:32:17;11.90;71.10
26099;DHT22;13860;52.370;6.764;2023-04-24T00:35:32;11.90;70.70
26099;DHT22;13860;52.370;6.764;2023-04-24T00:38:36;11.80;71.10
26099;DHT22;13860;52.370;6.764;2023-04-24T00:41:44;11.80;70.60
26099;DHT22;13860;52.370;6.764;2023-04-24T00:44:49;11.80;70.60
26099;DHT22;13860;52.370;6.764;2023-04-24T00:47:55;11.80;70.90
26099;DHT22;13860;52.370;6.764;2023-04-24T00:50:59;11.80;70.80
26099;DHT22;13860;52.370;6.764;2023-04-24T00:54:05;11.80;70.90
26099;DHT22;13860;52.370;6.764;2023-04-24T00:57:10;11.80;70.70
26099;DHT22;13860;52.370;6.764;2023-04-24T01:00:16;11.80;70.70
26099;DHT22;13860;52.370;6.764;2023-04-24T01:03:20;11.80;71.00
26099;DHT22;13860;52.370;6.764;2023-04-24T01:06:27;11.80;71.20
26099;DHT22;13860;52.370;6.764;2023-04-24T01:09:32;11.70;71.20
26099;DHT22;13860;52.370;6.764;2023-04-24T01:12:40;11.70;71.10
26099;DHT22;13860;52.370;6.764;2023-04-24T01:15:46;11.70;70.70
26099;DHT22;13860;52.370;6.764;2023-04-24T01:18:52;11.80;71.00
26099;DHT22;13860;52.370;6.764;2023-04-24T01:21:57;11.80;70.70
26099;DHT22;13860;52.370;6.764;2023-04-24T01:25:06;11.80;70.90
26099;DHT22;13860;52.370;6.764;2023-04-24T01:28:11;11.80;70.60
26099;DHT22;13860;52.370;6.764;2023-04-24T01:31:17;11.80;71.20
26099;DHT22;13860;52.370;6.764;2023-04-24T01:34:21;11.80;71.00
26099;DHT22;13860;52.370;6.764;2023-04-24T01:37:28;11.80;71.20
26099;DHT22;13860;52.370;6.764;2023-04-24T01:40:35;11.70;71.40
26099;DHT22;13860;52.370;6.764;2023-04-24T01:43:41;11.80;71.70
26099;DHT22;13860;52.370;6.764;2023-04-24T01:46:45;11.80;71.10
26099;DHT22;13860;52.370;6.764;2023-04-24T01:49:50;11.80;71.30
26099;DHT22;13860;52.370;6.764;2023-04-24T01:52:54;11.90;71.30
26099;DHT22;13860;52.370;6.764;2023-04-24T01:56:02;11.80;71.50
26099;DHT22;13860;52.370;6.764;2023-04-24T01:59:06;11.90;71.40
26099;DHT22;13860;52.370;6.764;2023-04-24T02:02:12;11.90;71.30
26099;DHT22;13860;52.370;6.764;2023-04-24T02:05:16;11.90;71.40
26099;DHT22;13860;52.370;6.764;2023-04-24T02:08:22;11.90;71.70
26099;DHT22;13860;52.370;6.764;2023-04-24T02:11:28;11.80;71.10
26099;DHT22;13860;52.370;6.764;2023-04-24T02:14:34;11.90;71.50
26099;DHT22;13860;52.370;6.764;2023-04-24T02:17:38;11.90;71.50
26099;DHT22;13860;52.370;6.764;2023-04-24T02:20:44;11.90;71.10
26099;DHT22;13860;52.370;6.764;2023-04-24T02:23:50;11.90;71.00
26099;DHT22;13860;52.370;6.764;2023-04-24T02:26:58;11.80;71.50
26099;DHT22;13860;52.370;6.764;2023-04-24T02:30:02;11.90;71.40
26099;DHT22;13860;52.370;6.764;2023-04-24T02:33:08;11.90;71.70
26099;DHT22;13860;52.370;6.764;2023-04-24T02:36:12;11.90;71.30
26099;DHT22;13860;52.370;6.764;2023-04-24T02:39:18;11.90;71.40
26099;DHT22;13860;52.370;6.764;2023-04-24T02:42:24;11.90;71.90
26099;DHT22;13860;52.370;6.764;2023-04-24T02:45:29;11.80;71.30
26099;DHT22;13860;52.370;6.764;2023-04-24T02:48:36;11.90;71.40
26099;DHT22;13860;52.370;6.764;2023-04-24T02:51:42;11.90;71.30
26099;DHT22;13860;52.370;6.764;2023-04-24T02:54:46;11.80;71.10
26099;DHT22;13860;52.370;6.764;2023-04-24T02:57:53;11.80;71.30
26099;DHT22;13860;52.370;6.764;2023-04-24T03:00:57;11.80;71.30
26099;DHT22;13860;52.370;6.764;2023-04-24T03:04:03;11.90;71.60
26099;DHT22;13860;52.370;6.764;2023-04-24T03:07:07;11.90;71.40
26099;DHT22;13860;52.370;6.764;2023-04-24T03:10:13;11.80;71.20
26099;DHT22;13860;52.370;6.764;2023-04-24T03:13:19;11.80;71.40
26099;DHT22;13860;52.370;6.764;2023-04-24T03:16:25;11.80;71.30
26099;DHT22;13860;52.370;6.764;2023-04-24T03:19:29;11.80;71.60
26099;DHT22;13860;52.370;6.764;2023-04-24T03:22:41;11.80;71.40
26099;DHT22;13860;52.370;6.764;2023-04-24T03:25:46;11.90;71.30
26099;DHT22;13860;52.370;6.764;2023-04-24T03:28:54;11.80;71.10
26099;DHT22;13860;52.370;6.764;2023-04-24T03:31:58;11.80;70.90
26099;DHT22;13860;52.370;6.764;2023-04-24T03:35:05;11.80;71.30
26099;DHT22;13860;52.370;6.764;2023-04-24T03:38:09;11.70;71.20
26099;DHT22;13860;52.370;6.764;2023-04-24T03:41:29;11.80;71.20
26099;DHT22;13860;52.370;6.764;2023-04-24T03:44:44;11.70;71.30
26099;DHT22;13860;52.370;6.764;2023-04-24T03:47:51;11.80;71.30
26099;DHT22;13860;52.370;6.764;2023-04-24T03:50:55;11.80;72.20
26099;DHT22;13860;52.370;6.764;2023-04-24T03:54:00;11.80;72.00
26099;DHT22;13860;52.370;6.764;2023-04-24T03:57:06;11.80;71.40
26099;DHT22;13860;52.370;6.764;2023-04-24T04:00:18;11.80;71.50
26099;DHT22;13860;52.370;6.764;2023-04-24T04:03:28;11.80;71.90
26099;DHT22;13860;52.370;6.764;2023-04-24T04:06:35;11.80;71.60
26099;DHT22;13860;52.370;6.764;2023-04-24T04:09:39;11.70;71.50
26099;DHT22;13860;52.370;6.764;2023-04-24T04:12:45;11.80;71.90
26099;DHT22;13860;52.370;6.764;2023-04-24T04:15:51;11.80;71.80
26099;DHT22;13860;52.370;6.764;2023-04-24T04:18:57;11.70;71.60
26099;DHT22;13860;52.370;6.764;2023-04-24T04:22:01;11.70;72.10
26099;DHT22;13860;52.370;6.764;2023-04-24T04:25:19;11.70;71.70
26099;DHT22;13860;52.370;6.764;2023-04-24T04:28:24;11.70;71.80
26099;DHT22;13860;52.370;6.764;2023-04-24T04:31:32;11.80;71.80
26099;DHT22;13860;52.370;6.764;2023-04-24T04:34:41;11.70;71.60
26099;DHT22;13860;52.370;6.764;2023-04-24T04:37:48;11.70;71.60
26099;DHT22;13860;52.370;6.764;2023-04-24T04:41:03;11.80;72.00
26099;DHT22;13860;52.370;6.764;2023-04-24T04:44:10;11.70;71.50
26099;DHT22;13860;52.370;6.764;2023-04-24T04:47:17;11.70;71.80
26099;DHT22;13860;52.370;6.764;2023-04-24T04:50:23;11.70;72.20
26099;DHT22;13860;52.370;6.764;2023-04-24T04:53:34;11.70;71.80
26099;DHT22;13860;52.370;6.764;2023-04-24T04:56:40;11.70;72.10
26099;DHT22;13860;52.370;6.764;2023-04-24T04:59:44;11.70;71.80
26099;DHT22;13860;52.370;6.764;2023-04-24T05:03:00;11.60;72.00
26099;DHT22;13860;52.370;6.764;2023-04-24T05:06:22;11.60;72.10
26099;DHT22;13860;52.370;6.764;2023-04-24T05:09:31;11.60;71.90
26099;DHT22;13860;52.370;6.764;2023-04-24T05:12:37;11.60;71.80
26099;DHT22;13860;52.370;6.764;2023-04-24T05:15:44;11.60;71.80
26099;DHT22;13860;52.370;6.764;2023-04-24T05:18:51;11.60;72.30
26099;DHT22;13860;52.370;6.764;2023-04-24T05:22:01;11.60;72.10
26099;DHT22;13860;52.370;6.764;2023-04-24T05:25:11;11.60;71.50
26099;DHT22;13860;52.370;6.764;2023-04-24T05:28:32;11.60;72.00
26099;DHT22;13860;52.370;6.764;2023-04-24T05:31:42;11.50;71.80
26099;DHT22;13860;52.370;6.764;2023-04-24T05:34:50;11.50;71.80
26099;DHT22;13860;52.370;6.764;2023-04-24T05:38:10;11.50;71.90
26099;DHT22;13860;52.370;6.764;2023-04-24T05:41:16;11.40;72.00
26099;DHT22;13860;52.370;6.764;2023-04-24T05:44:19;11.40;72.10
26099;DHT22;13860;52.370;6.764;2023-04-24T05:47:25;11.50;72.60
26099;DHT22;13860;52.370;6.764;2023-04-24T05:50:31;11.40;72.80
26099;DHT22;13860;52.370;6.764;2023-04-24T05:53:40;11.50;72.30
26099;DHT22;13860;52.370;6.764;2023-04-24T05:56:44;11.40;72.30
26099;DHT22;13860;52.370;6.764;2023-04-24T05:59:56;11.40;72.30
26099;DHT22;13860;52.370;6.764;2023-04-24T06:03:00;11.50;72.70
26099;DHT22;13860;52.370;6.764;2023-04-24T06:06:09;11.40;72.40
26099;DHT22;13860;52.370;6.764;2023-04-24T06:09:13;11.40;72.30
26099;DHT22;13860;52.370;6.764;2023-04-24T06:12:20;11.50;72.30
26099;DHT22;13860;52.370;6.764;2023-04-24T06:15:30;11.40;72.30
26099;DHT22;13860;52.370;6.764;2023-04-24T06:18:56;11.40;72.80
26099;DHT22;13860;52.370;6.764;2023-04-24T06:22:01;11.40;72.30
26099;DHT22;13860;52.370;6.764;2023-04-24T06:25:07;11.40;72.70
26099;DHT22;13860;52.370;6.764;2023-04-24T06:28:12;11.40;72.60
26099;DHT22;13860;52.370;6.764;2023-04-24T06:31:17;11.40;72.50
26099;DHT22;13860;52.370;6.764;2023-04-24T06:34:21;11.40;72.70
26099;DHT22;13860;52.370;6.764;2023-04-24T06:37:29;11.40;72.50
26099;DHT22;13860;52.370;6.764;2023-04-24T06:40:33;11.40;72.80
26099;DHT22;13860;52.370;6.764;2023-04-24T06:43:39;11.30;72.50
26099;DHT22;13860;52.370;6.764;2023-04-24T06:46:43;11.30;72.40
26099;DHT22;13860;52.370;6.764;2023-04-24T06:49:48;11.30;72.60
26099;DHT22;13860;52.370;6.764;2023-04-24T06:52:55;11.30;73.00
26099;DHT22;13860;52.370;6.764;2023-04-24T06:56:01;11.40;72.70
26099;DHT22;13860;52.370;6.764;2023-04-24T06:59:05;11.30;72.90
26099;DHT22;13860;52.370;6.764;2023-04-24T07:02:11;11.30;73.50
26099;DHT22;13860;52.370;6.764;2023-04-24T07:05:15;11.30;73.10
26099;DHT22;13860;52.370;6.764;2023-04-24T07:08:25;11.30;72.90
26099;DHT22;13860;52.370;6.764;2023-04-24T07:11:29;11.30;73.30
26099;DHT22;13860;52.370;6.764;2023-04-24T07:14:36;11.30;72.90
26099;DHT22;13860;52.370;6.764;2023-04-24T07:17:39;11.20;72.70
26099;DHT22;13860;52.370;6.764;2023-04-24T07:20:47;11.20;72.80
26099;DHT22;13860;52.370;6.764;2023-04-24T07:23:53;11.20;72.70
26099;DHT22;13860;52.370;6.764;2023-04-24T07:26:59;11.30;72.90
26099;DHT22;13860;52.370;6.764;2023-04-24T07:30:03;11.30;73.20
26099;DHT22;13860;52.370;6.764;2023-04-24T07:33:09;11.30;73.40
26099;DHT22;13860;52.370;6.764;2023-04-24T07:36:14;11.30;73.20
26099;DHT22;13860;52.370;6.764;2023-04-24T07:39:24;11.40;73.30
26099;DHT22;13860;52.370;6.764;2023-04-24T07:42:28;11.30;73.10
26099;DHT22;13860;52.370;6.764;2023-04-24T07:45:34;11.40;73.10
26099;DHT22;13860;52.370;6.764;2023-04-24T07:48:39;11.40;72.70
26099;DHT22;13860;52.370;6.764;2023-04-24T07:51:44;11.40;72.70
26099;DHT22;13860;52.370;6.764;2023-04-24T07:54:50;11.40;72.70
26099;DHT22;13860;52.370;6.764;2023-04-24T07:58:01;11.50;73.20
26099;DHT22;13860;52.370;6.764;2023-04-24T08:01:05;11.50;73.20
26099;DHT22;13860;52.370;6.764;2023-04-24T08:04:11;11.40;73.20
26099;DHT22;13860;52.370;6.764;2023-04-24T08:07:15;11.50;73.10
26099;DHT22;13860;52.370;6.764;2023-04-24T08:10:22;11.40;73.00
26099;DHT22;13860;52.370;6.764;2023-04-24T08:13:26;11.50;73.30
26099;DHT22;13860;52.370;6.764;2023-04-24T08:16:32;11.50;73.10
26099;DHT22;13860;52.370;6.764;2023-04-24T08:19:36;11.80;73.70
26099;DHT22;13860;52.370;6.764;2023-04-24T08:22:42;11.50;73.20
26099;DHT22;13860;52.370;6.764;2023-04-24T08:25:50;11.50;73.00
26099;DHT22;13860;52.370;6.764;2023-04-24T08:28:56;11.50;72.90
26099;DHT22;13860;52.370;6.764;2023-04-24T08:32:00;11.60;73.30
26099;DHT22;13860;52.370;6.764;2023-04-24T08:35:06;11.60;73.40
26099;DHT22;13860;52.370;6.764;2023-04-24T08:38:11;11.60;73.10
26099;DHT22;13860;52.370;6.764;2023-04-24T08:41:19;11.60;72.90
26099;DHT22;13860;52.370;6.764;2023-04-24T08:44:24;11.70;73.10
26099;DHT22;13860;52.370;6.764;2023-04-24T08:47:29;11.70;73.20
26099;DHT22;13860;52.370;6.764;2023-04-24T08:50:34;11.70;73.30
26099;DHT22;13860;52.370;6.764;2023-04-24T08:53:40;11.70;73.30
26099;DHT22;13860;52.370;6.764;2023-04-24T08:56:45;11.70;73.40
26099;DHT22;13860;52.370;6.764;2023-04-24T08:59:53;11.70;73.40
26099;DHT22;13860;52.370;6.764;2023-04-24T09:02:57;11.80;73.40
26099;DHT22;13860;52.370;6.764;2023-04-24T09:06:03;11.80;73.70
26099;DHT22;13860;52.370;6.764;2023-04-24T09:09:07;11.80;73.20
26099;DHT22;13860;52.370;6.764;2023-04-24T09:12:15;11.80;73.30
26099;DHT22;13860;52.370;6.764;2023-04-24T09:15:19;11.80;73.40
26099;DHT22;13860;52.370;6.764;2023-04-24T09:18:25;11.90;73.80
26099;DHT22;13860;52.370;6.764;2023-04-24T09:21:31;11.80;73.50
26099;DHT22;13860;52.370;6.764;2023-04-24T09:24:37;11.80;73.70
26099;DHT22;13860;52.370;6.764;2023-04-24T09:27:44;11.80;73.60
26099;DHT22;13860;52.370;6.764;2023-04-24T09:30:54;11.70;73.50
26099;DHT22;13860;52.370;6.764;2023-04-24T09:34:05;11.70;73.80
26099;DHT22;13860;52.370;6.764;2023-04-24T09:37:11;11.70;74.10
26099;DHT22;13860;52.370;6.764;2023-04-24T09:40:15;11.60;73.60
26099;DHT22;13860;52.370;6.764;2023-04-24T09:43:23;11.50;73.70
26099;DHT22;13860;52.370;6.764;2023-04-24T09:46:30;11.50;73.40
26099;DHT22;13860;52.370;6.764;2023-04-24T09:49:37;11.50;73.80
26099;DHT22;13860;52.370;6.764;2023-04-24T09:52:43;11.40;73.60
26099;DHT22;13860;52.370;6.764;2023-04-24T09:55:49;11.40;73.50
26099;DHT22;13860;52.370;6.764;2023-04-24T09:58:56;11.40;73.90
26099;DHT22;13860;52.370;6.764;2023-04-24T10:02:16;11.60;73.90
26099;DHT22;13860;52.370;6.764;2023-04-24T10:05:22;11.40;74.10
26099;DHT22;13860;52.370;6.764;2023-04-24T10:08:33;11.40;74.10
26099;DHT22;13860;52.370;6.764;2023-04-24T10:11:37;11.30;73.70
26099;DHT22;13860;52.370;6.764;2023-04-24T10:14:45;11.30;74.30
26099;DHT22;13860;52.370;6.764;2023-04-24T10:17:50;11.40;74.30
26099;DHT22;13860;52.370;6.764;2023-04-24T10:20:57;11.30;73.90
26099;DHT22;13860;52.370;6.764;2023-04-24T10:24:04;11.30;73.50
26099;DHT22;13860;52.370;6.764;2023-04-24T10:27:10;11.30;73.70
26099;DHT22;13860;52.370;6.764;2023-04-24T10:30:19;11.30;74.10
26099;DHT22;13860;52.370;6.764;2023-04-24T10:33:25;11.30;73.70
26099;DHT22;13860;52.370;6.764;2023-04-24T10:36:29;11.40;74.00
26099;DHT22;13860;52.370;6.764;2023-04-24T10:39:36;11.40;74.20
26099;DHT22;13860;52.370;6.764;2023-04-24T10:42:41;11.40;74.40
26099;DHT22;13860;52.370;6.764;2023-04-24T10:46:02;11.40;74.00
26099;DHT22;13860;52.370;6.764;2023-04-24T10:49:06;11.40;73.30
26099;DHT22;13860;52.370;6.764;2023-04-24T10:52:14;11.40;73.60
26099;DHT22;13860;52.370;6.764;2023-04-24T10:58:39;11.40;74.10
26099;DHT22;13860;52.370;6.764;2023-04-24T11:01:50;11.40;73.70
26099;DHT22;13860;52.370;6.764;2023-04-24T11:04:57;11.40;74.50
26099;DHT22;13860;52.370;6.764;2023-04-24T11:08:10;11.30;73.90
26099;DHT22;13860;52.370;6.764;2023-04-24T11:11:17;11.20;73.80
26099;DHT22;13860;52.370;6.764;2023-04-24T11:14:22;11.30;73.90
26099;DHT22;13860;52.370;6.764;2023-04-24T11:17:33;11.20;73.70
26099;DHT22;13860;52.370;6.764;2023-04-24T11:20:41;11.10;73.60
26099;DHT22;13860;52.370;6.764;2023-04-24T11:23:47;11.10;73.80
26099;DHT22;13860;52.370;6.764;2023-04-24T11:26:52;11.10;74.20
26099;DHT22;13860;52.370;6.764;2023-04-24T11:29:59;11.10;74.20
26099;DHT22;13860;52.370;6.764;2023-04-24T11:33:08;11.10;74.30
26099;DHT22;13860;52.370;6.764;2023-04-24T11:36:14;11.20;74.00
26099;DHT22;13860;52.370;6.764;2023-04-24T11:39:17;11.20;74.10
26099;DHT22;13860;52.370;6.764;2023-04-24T11:42:23;11.20;74.20
26099;DHT22;13860;52.370;6.764;2023-04-24T11:45:28;11.30;74.30
26099;DHT22;13860;52.370;6.764;2023-04-24T11:48:36;11.30;74.30
26099;DHT22;13860;52.370;6.764;2023-04-24T11:51:41;11.30;74.00
26099;DHT22;13860;52.370;6.764;2023-04-24T11:54:57;11.40;74.50
26099;DHT22;13860;52.370;6.764;2023-04-24T11:58:01;11.40;74.30
26099;DHT22;13860;52.370;6.764;2023-04-24T12:01:07;11.40;74.10
26099;DHT22;13860;52.370;6.764;2023-04-24T12:04:13;11.40;74.50
26099;DHT22;13860;52.370;6.764;2023-04-24T12:07:19;11.40;74.30
26099;DHT22;13860;52.370;6.764;2023-04-24T12:10:23;11.40;74.40
26099;DHT22;13860;52.370;6.764;2023-04-24T12:13:29;11.40;74.20
26099;DHT22;13860;52.370;6.764;2023-04-24T12:16:33;11.40;74.40
26099;DHT22;13860;52.370;6.764;2023-04-24T12:19:46;11.40;74.30
26099;DHT22;13860;52.370;6.764;2023-04-24T12:22:51;11.40;74.10
26099;DHT22;13860;52.370;6.764;2023-04-24T12:25:59;11.50;74.60
26099;DHT22;13860;52.370;6.764;2023-04-24T12:29:03;11.50;74.30
26099;DHT22;13860;52.370;6.764;2023-04-24T12:32:15;11.50;74.10
26099;DHT22;13860;52.370;6.764;2023-04-24T12:35:21;11.60;74.10
26099;DHT22;13860;52.370;6.764;2023-04-24T12:38:27;11.60;74.10
26099;DHT22;13860;52.370;6.764;2023-04-24T12:41:32;11.60;74.00
26099;DHT22;13860;52.370;6.764;2023-04-24T12:44:38;11.60;73.80
26099;DHT22;13860;52.370;6.764;2023-04-24T12:47:42;11.60;73.90
26099;DHT22;13860;52.370;6.764;2023-04-24T12:50:50;11.70;74.40
26099;DHT22;13860;52.370;6.764;2023-04-24T12:53:54;11.70;74.20
26099;DHT22;13860;52.370;6.764;2023-04-24T12:56:59;12.00;74.30
26099;DHT22;13860;52.370;6.764;2023-04-24T13:00:03;11.70;74.10
26099;DHT22;13860;52.370;6.764;2023-04-24T13:03:10;11.70;74.10
26099;DHT22;13860;52.370;6.764;2023-04-24T13:06:16;11.80;74.30
26099;DHT22;13860;52.370;6.764;2023-04-24T13:09:22;11.80;74.30
26099;DHT22;13860;52.370;6.764;2023-04-24T13:12:25;11.70;74.00
26099;DHT22;13860;52.370;6.764;2023-04-24T13:15:31;11.70;73.80
26099;DHT22;13860;52.370;6.764;2023-04-24T13:18:35;11.70;73.90
26099;DHT22;13860;52.370;6.764;2023-04-24T13:21:43;11.70;74.00
26099;DHT22;13860;52.370;6.764;2023-04-24T13:24:49;11.80;74.00
26099;DHT22;13860;52.370;6.764;2023-04-24T13:27:55;11.80;74.20
26099;DHT22;13860;52.370;6.764;2023-04-24T13:30:59;11.80;74.40
26099;DHT22;13860;52.370;6.764;2023-04-24T13:34:05;11.70;74.40
26099;DHT22;13860;52.370;6.764;2023-04-24T13:37:10;11.70;74.00
26099;DHT22;13860;52.370;6.764;2023-04-24T13:40:16;11.70;74.10
26099;DHT22;13860;52.370;6.764;2023-04-24T13:43:20;11.70;73.90
26099;DHT22;13860;52.370;6.764;2023-04-24T13:46:26;11.70;74.00
26099;DHT22;13860;52.370;6.764;2023-04-24T13:49:30;11.70;74.10
26099;DHT22;13860;52.370;6.764;2023-04-24T13:52:38;11.60;73.90
26099;DHT22;13860;52.370;6.764;2023-04-24T13:55:42;11.60;74.10
26099;DHT22;13860;52.370;6.764;2023-04-24T13:58:47;11.70;74.70
26099;DHT22;13860;52.370;6.764;2023-04-24T14:01:51;11.60;73.80
26099;DHT22;13860;52.370;6.764;2023-04-24T14:04:58;11.70;73.90
26099;DHT22;13860;52.370;6.764;2023-04-24T14:08:04;11.70;74.20
26099;DHT22;13860;52.370;6.764;2023-04-24T14:11:10;11.70;74.20
26099;DHT22;13860;52.370;6.764;2023-04-24T14:14:13;11.70;74.40
26099;DHT22;13860;52.370;6.764;2023-04-24T14:17:19;11.70;74.10
26099;DHT22;13860;52.370;6.764;2023-04-24T14:20:23;11.60;74.00
26099;DHT22;13860;52.370;6.764;2023-04-24T14:23:31;11.70;74.10
26099;DHT22;13860;52.370;6.764;2023-04-24T14:26:34;11.70;74.20
26099;DHT22;13860;52.370;6.764;2023-04-24T14:29:40;11.70;74.40
26099;DHT22;13860;52.370;6.764;2023-04-24T14:32:44;11.70;74.40
26099;DHT22;13860;52.370;6.764;2023-04-24T14:35:50;11.70;74.40
26099;DHT22;13860;52.370;6.764;2023-04-24T14:38:56;11.80;74.40
26099;DHT22;13860;52.370;6.764;2023-04-24T14:42:03;11.70;74.40
26099;DHT22;13860;52.370;6.764;2023-04-24T14:45:07;11.80;74.00
26099;DHT22;13860;52.370;6.764;2023-04-24T14:48:13;11.80;74.50
26099;DHT22;13860;52.370;6.764;2023-04-24T14:51:17;11.80;74.30
26099;DHT22;13860;52.370;6.764;2023-04-24T14:54:25;11.80;74.30
26099;DHT22;13860;52.370;6.764;2023-04-24T14:57:29;11.80;74.50
26099;DHT22;13860;52.370;6.764;2023-04-24T15:00:35;11.80;74.50
26099;DHT22;13860;52.370;6.764;2023-04-24T15:03:38;11.80;74.70
26099;DHT22;13860;52.370;6.764;2023-04-24T15:06:44;11.80;74.30
26099;DHT22;13860;52.370;6.764;2023-04-24T15:09:50;11.80;74.50
26099;DHT22;13860;52.370;6.764;2023-04-24T15:12:55;11.80;74.10
26099;DHT22;13860;52.370;6.764;2023-04-24T15:15:59;11.80;74.20
26099;DHT22;13860;52.370;6.764;2023-04-24T15:19:05;11.80;74.60
26099;DHT22;13860;52.370;6.764;2023-04-24T15:22:09;11.80;74.40
26099;DHT22;13860;52.370;6.764;2023-04-24T15:25:17;11.80;74.40
26099;DHT22;13860;52.370;6.764;2023-04-24T15:28:20;11.80;74.10
26099;DHT22;13860;52.370;6.764;2023-04-24T15:31:26;11.90;74.40
26099;DHT22;13860;52.370;6.764;2023-04-24T15:34:30;11.80;74.90
26099;DHT22;13860;52.370;6.764;2023-04-24T15:37:36;11.80;74.50
26099;DHT22;13860;52.370;6.764;2023-04-24T15:40:41;11.90;74.90
26099;DHT22;13860;52.370;6.764;2023-04-24T15:43:48;11.80;74.90
26099;DHT22;13860;52.370;6.764;2023-04-24T15:46:51;11.80;74.60
26099;DHT22;13860;52.370;6.764;2023-04-24T15:49:57;11.90;74.50
26099;DHT22;13860;52.370;6.764;2023-04-24T15:53:01;11.80;74.10
26099;DHT22;13860;52.370;6.764;2023-04-24T15:56:09;11.80;74.00
26099;DHT22;13860;52.370;6.764;2023-04-24T15:59:13;11.90;74.10
26099;DHT22;13860;52.370;6.764;2023-04-24T16:02:18;11.90;74.30
26099;DHT22;13860;52.370;6.764;2023-04-24T16:05:25;12.00;74.60
26099;DHT22;13860;52.370;6.764;2023-04-24T16:08:30;12.00;74.50
26099;DHT22;13860;52.370;6.764;2023-04-24T16:11:36;12.00;74.30
26099;DHT22;13860;52.370;6.764;2023-04-24T16:14:42;12.00;74.20
26099;DHT22;13860;52.370;6.764;2023-04-24T16:17:45;12.00;74.50
26099;DHT22;13860;52.370;6.764;2023-04-24T16:20:51;12.00;74.50
26099;DHT22;13860;52.370;6.764;2023-04-24T16:23:55;12.00;74.20
26099;DHT22;13860;52.370;6.764;2023-04-24T16:27:03;12.00;74.20
26099;DHT22;13860;52.370;6.764;2023-04-24T16:30:07;12.00;73.90
26099;DHT22;13860;52.370;6.764;2023-04-24T16:33:13;12.00;74.20
26099;DHT22;13860;52.370;6.764;2023-04-24T16:36:17;11.90;74.10
26099;DHT22;13860;52.370;6.764;2023-04-24T16:39:23;11.90;74.20
26099;DHT22;13860;52.370;6.764;2023-04-24T16:42:29;11.90;74.00
26099;DHT22;13860;52.370;6.764;2023-04-24T16:45:35;11.90;73.90
26099;DHT22;13860;52.370;6.764;2023-04-24T16:48:38;11.90;74.30
26099;DHT22;13860;52.370;6.764;2023-04-24T16:51:44;11.90;74.40
26099;DHT22;13860;52.370;6.764;2023-04-24T16:54:48;11.80;73.80
26099;DHT22;13860;52.370;6.764;2023-04-24T16:57:56;11.90;74.00
26099;DHT22;13860;52.370;6.764;2023-04-24T17:01:00;11.80;73.60
26099;DHT22;13860;52.370;6.764;2023-04-24T17:04:05;11.70;74.20
26099;DHT22;13860;52.370;6.764;2023-04-24T17:07:09;11.70;73.90
26099;DHT22;13860;52.370;6.764;2023-04-24T17:10:15;11.70;73.90
26099;DHT22;13860;52.370;6.764;2023-04-24T17:13:21;11.70;74.10
26099;DHT22;13860;52.370;6.764;2023-04-24T17:16:27;11.70;74.00
26099;DHT22;13860;52.370;6.764;2023-04-24T17:19:31;11.70;74.20
26099;DHT22;13860;52.370;6.764;2023-04-24T17:22:37;11.60;74.20
26099;DHT22;13860;52.370;6.764;2023-04-24T17:25:40;11.60;74.00
26099;DHT22;13860;52.370;6.764;2023-04-24T17:29:00;11.60;73.70
26099;DHT22;13860;52.370;6.764;2023-04-24T17:32:04;11.60;73.30
26099;DHT22;13860;52.370;6.764;2023-04-24T17:35:10;11.60;73.70
26099;DHT22;13860;52.370;6.764;2023-04-24T17:38:13;11.50;73.80
26099;DHT22;13860;52.370;6.764;2023-04-24T17:41:19;11.50;73.70
26099;DHT22;13860;52.370;6.764;2023-04-24T17:44:25;11.50;73.80
26099;DHT22;13860;52.370;6.764;2023-04-24T17:47:31;11.50;73.30
26099;DHT22;13860;52.370;6.764;2023-04-24T17:50:34;11.40;73.40
26099;DHT22;13860;52.370;6.764;2023-04-24T17:53:40;11.40;73.00
26099;DHT22;13860;52.370;6.764;2023-04-24T17:56:44;11.40;73.30
26099;DHT22;13860;52.370;6.764;2023-04-24T17:59:52;11.40;72.80
26099;DHT22;13860;52.370;6.764;2023-04-24T18:02:56;11.40;72.80
26099;DHT22;13860;52.370;6.764;2023-04-24T18:06:03;11.40;72.80
26099;DHT22;13860;52.370;6.764;2023-04-24T18:09:07;11.30;72.60
26099;DHT22;13860;52.370;6.764;2023-04-24T18:12:14;11.30;72.60
26099;DHT22;13860;52.370;6.764;2023-04-24T18:15:20;11.30;72.60
26099;DHT22;13860;52.370;6.764;2023-04-24T18:18:25;11.20;72.60
26099;DHT22;13860;52.370;6.764;2023-04-24T18:21:29;11.20;72.60
26099;DHT22;13860;52.370;6.764;2023-04-24T18:24:35;11.10;72.30
26099;DHT22;13860;52.370;6.764;2023-04-24T18:27:39;11.10;72.70
26099;DHT22;13860;52.370;6.764;2023-04-24T18:30:47;11.10;72.40
26099;DHT22;13860;52.370;6.764;2023-04-24T18:33:50;11.00;71.90
26099;DHT22;13860;52.370;6.764;2023-04-24T18:36:57;11.00;72.40
26099;DHT22;13860;52.370;6.764;2023-04-24T18:40:01;11.00;72.10
26099;DHT22;13860;52.370;6.764;2023-04-24T18:43:07;10.90;72.20
26099;DHT22;13860;52.370;6.764;2023-04-24T18:46:13;10.90;72.30
26099;DHT22;13860;52.370;6.764;2023-04-24T18:49:19;10.90;72.10
26099;DHT22;13860;52.370;6.764;2023-04-24T18:52:23;10.90;72.00
26099;DHT22;13860;52.370;6.764;2023-04-24T18:55:29;10.90;72.00
26099;DHT22;13860;52.370;6.764;2023-04-24T18:58:34;10.90;72.20
26099;DHT22;13860;52.370;6.764;2023-04-24T19:01:47;10.80;72.20
26099;DHT22;13860;52.370;6.764;2023-04-24T19:04:51;10.80;72.10
26099;DHT22;13860;52.370;6.764;2023-04-24T19:07:58;10.70;72.00
26099;DHT22;13860;52.370;6.764;2023-04-24T19:11:01;10.70;72.10
26099;DHT22;13860;52.370;6.764;2023-04-24T19:14:07;10.70;72.00
26099;DHT22;13860;52.370;6.764;2023-04-24T19:17:13;10.70;72.00
26099;DHT22;13860;52.370;6.764;2023-04-24T19:20:24;10.70;71.90
26099;DHT22;13860;52.370;6.764;2023-04-24T19:23:28;10.70;72.00
26099;DHT22;13860;52.370;6.764;2023-04-24T19:26:35;10.70;72.00
26099;DHT22;13860;52.370;6.764;2023-04-24T19:29:39;10.70;71.80
26099;DHT22;13860;52.370;6.764;2023-04-24T19:32:47;10.60;71.80
26099;DHT22;13860;52.370;6.764;2023-04-24T19:35:51;10.60;72.40
26099;DHT22;13860;52.370;6.764;2023-04-24T19:38:57;10.60;71.90